Latest Weather Observations for Richmond

IDN60901

Issued at 9:21 am EDT Monday 5 December 2016 (issued every 10 minutes, with the page automatically refreshed every 10 minutes)

About weather observations | Map of Sydney area stations | Latest observations for Sydney area | Other Formats
Station Details ID: 067105 Name: RICHMOND RAAF Lat: -33.60 Lon: 150.78 Height: 19.0 m
Data from the previous 72 hours. | See also: Recent months at Richmond
Date/Time
EDT
Temp
°C
App
Temp
°C
Dew
Point
°C
Rel
Hum
%
Delta-T
°C
Wind Press
QNH
hPa
Press
MSL
hPa
Rain since
9am
mm
Dir  Spd
km/h
Gust
km/h
Spd
kts
Gust
kts
05/09:00am 25.6 28.4 20.4 73 3.4 N 6 11 3 6 1009.7 1009.6 2.6
05/08:30am 25.0 27.7 21.3 80 2.4 NNW 9 13 5 7 1009.8 1009.7 2.6
05/08:00am 23.9 26.5 22.0 89 1.3 N 11 15 6 8 1009.8 1009.7 2.6
05/07:30am 22.9 25.9 21.9 94 0.7 N 9 11 5 6 1009.8 1009.7 2.6
05/07:00am 22.9 25.9 21.9 94 0.7 N 9 13 5 7 1010.1 1010.0 2.6
05/06:30am 21.8 24.0 21.1 96 0.5 NW 11 13 6 7 1010.3 1010.2 2.6
05/06:00am 21.9 23.0 21.2 96 0.5 ESE 17 26 9 14 1010.0 1009.9 2.6
05/05:45am 21.8 23.2 21.1 96 0.5 SSE 15 22 8 12 1010.4 1010.3 2.6
05/05:30am 22.1 21.3 20.9 93 0.8 S 26 44 14 24 1011.0 1010.9 2.2
05/05:25am 21.8 21.2 20.4 92 0.9 SSW 24 44 13 24 1011.2 1011.1 1.6
05/05:14am 22.7 22.7 20.2 86 1.6 SSW 20 33 11 18 1012.0 1011.9 0.0
05/05:00am 22.1 23.3 19.8 87 1.5 S 13 22 7 12 1009.9 1009.8 0.0
05/04:30am 21.9 24.2 19.8 88 1.3 SSW 7 9 4 5 1008.9 1008.8 0.0
05/04:00am 21.7 24.8 19.4 87 1.5 SW 2 7 1 4 1008.3 1008.2 0.0
05/03:30am 21.6 24.7 19.5 88 1.3 SSW 2 9 1 5 1008.6 1008.5 0.0
05/03:00am 22.3 25.9 19.7 85 1.7 CALM 0 6 0 3 1008.5 1008.4 0.0
05/02:30am 22.2 25.7 19.6 85 1.7 CALM 0 6 0 3 1008.8 1008.7 0.0
05/02:00am 22.1 25.6 19.6 86 1.6 CALM 0 0 0 0 1009.3 1009.2 0.0
05/01:30am 22.1 25.6 19.6 86 1.6 CALM 0 6 0 3 1009.6 1009.5 0.0
05/01:00am 22.5 24.8 19.5 83 1.9 ESE 6 9 3 5 1010.1 1010.0 0.0
05/12:30am 22.8 26.3 19.6 82 2.0 CALM 0 0 0 0 1010.9 1010.8 0.0
05/12:00am 22.6 24.8 19.6 83 1.9 NNE 7 7 4 4 1010.8 1010.7 0.0
 
Date/Time
EDT
Temp
°C
App
Temp
°C
Dew
Point
°C
Rel
Hum
%
Delta-T
°C
Wind Press
QNH
hPa
Press
MSL
hPa
Rain since
9am
mm
Dir  Spd
km/h
Gust
km/h
Spd
kts
Gust
kts
04/11:30pm 22.8 24.2 19.6 82 2.0 NE 11 15 6 8 1010.7 1010.6 0.0
04/11:00pm 23.1 24.2 19.7 81 2.2 ENE 13 19 7 10 1011.0 1010.9 0.0
04/10:30pm 23.4 24.6 19.8 80 2.3 ENE 13 20 7 11 1012.1 1012.0 0.0
04/10:00pm 23.8 25.7 19.7 78 2.6 NE 9 11 5 6 1012.9 1012.8 0.0
04/09:30pm 24.1 26.0 19.8 77 2.8 ENE 9 11 5 6 1012.3 1012.2 0.0
04/09:00pm 24.4 25.5 19.7 75 3.0 ENE 13 15 7 8 1012.1 1012.0 0.0
04/08:30pm 25.1 26.3 19.9 73 3.4 ENE 13 17 7 9 1011.9 1011.8 0.0
04/08:00pm 25.6 26.7 19.7 70 3.8 ENE 13 19 7 10 1011.6 1011.5 0.0
04/07:30pm 26.7 27.8 19.6 65 4.6 E 13 17 7 9 1011.3 1011.2 0.0
04/07:00pm 27.5 27.9 19.8 63 5.0 ENE 17 20 9 11 1011.1 1011.0 0.0
04/06:30pm 28.6 28.9 19.5 58 5.9 ENE 17 22 9 12 1010.6 1010.5 0.0
04/06:00pm 29.4 29.2 19.4 55 6.5 ENE 19 24 10 13 1010.3 1010.2 0.0
04/05:30pm 31.1 30.9 19.4 49 7.7 ENE 19 22 10 12 1010.2 1010.1 0.0
04/05:00pm 31.7 31.3 19.3 47 8.1 ENE 20 26 11 14 1010.2 1010.1 0.0
04/04:30pm 32.7 32.8 19.2 44 8.9 ENE 17 24 9 13 1010.4 1010.3 0.0
04/04:00pm 32.0 32.9 17.5 42 9.3 ENE 9 20 5 11 1010.7 1010.6 0.0
04/03:30pm 32.4 32.7 17.8 41 9.4 NE 13 19 7 10 1010.9 1010.8 0.0
04/03:00pm 31.3 32.0 17.9 44 8.6 NNE 11 20 6 11 1011.5 1011.4 0.0
04/02:30pm 30.4 31.2 18.2 48 7.8 E 11 19 6 10 1012.1 1012.0 0.0
04/02:00pm 30.1 30.8 17.9 48 7.8 E 11 19 6 10 1012.4 1012.3 0.0
04/01:30pm 29.6 30.1 18.4 51 7.2 ENE 13 20 7 11 1012.6 1012.5 0.0
04/01:00pm 28.8 28.6 17.7 51 7.0 ENE 15 24 8 13 1013.0 1012.9 0.0
04/12:30pm 28.7 29.3 18.5 54 6.5 ENE 13 20 7 11 1013.7 1013.6 0.0
04/12:00pm 27.7 27.2 17.8 54 6.3 ENE 17 22 9 12 1014.1 1014.0 0.0
04/11:30am 26.4 26.0 17.2 57 5.7 NE 15 24 8 13 1014.8 1014.7 0.0
04/11:00am 25.0 24.3 16.4 59 5.3 NNE 15 22 8 12 1015.1 1015.0 0.0
04/10:30am 24.5 24.2 16.5 61 4.9 NE 13 24 7 13 1015.6 1015.5 0.0
04/10:00am 24.3 23.6 16.3 61 4.9 NNE 15 22 8 12 1015.8 1015.7 0.0
04/09:30am 23.9 23.2 16.4 63 4.6 NE 15 20 8 11 1016.1 1016.0 0.0
04/09:00am 22.9 22.5 16.2 66 4.1 NNE 13 19 7 10 1016.2 1016.1 0.0
04/08:30am 22.6 23.8 16.9 70 3.5 NNW 6 7 3 4 1016.2 1016.1 0.0
04/08:00am 21.3 22.8 16.7 75 2.8 NNW 4 9 2 5 1016.3 1016.2 0.0
04/07:30am 20.1 21.9 17.3 84 1.7 W 4 7 2 4 1016.0 1015.9 0.0
04/07:00am 18.3 19.3 16.8 91 0.9 WSW 7 9 4 5 1016.0 1015.9 0.0
04/06:30am 17.4 19.8 17.1 98 0.2 CALM 0 0 0 0 1015.5 1015.4 0.0
04/06:00am 16.4 18.4 15.9 97 0.3 CALM 0 0 0 0 1015.6 1015.5 0.0
04/05:30am 16.6 18.6 16.0 96 0.4 CALM 0 0 0 0 1015.8 1015.7 0.0
04/05:00am 17.1 19.2 16.3 95 0.5 CALM 0 0 0 0 1015.7 1015.6 0.0
04/04:30am 17.2 18.3 16.6 96 0.4 NW 6 6 3 3 1015.7 1015.6 0.0
04/04:00am 17.3 19.4 16.2 93 0.7 CALM 0 0 0 0 1015.4 1015.3 0.0
04/03:30am 17.7 18.7 16.4 92 0.8 NNW 6 6 3 3 1015.3 1015.2 0.0
04/03:00am 18.1 20.3 16.4 90 1.0 CALM 0 0 0 0 1015.2 1015.1 0.0
04/02:30am 18.0 19.8 15.6 86 1.4 CALM 0 0 0 0 1015.2 1015.1 0.0
04/02:00am 19.1 21.1 16.1 83 1.8 CALM 0 0 0 0 1015.5 1015.4 0.0
04/01:30am 20.0 22.1 16.2 79 2.3 CALM 0 4 0 2 1015.9 1015.8 0.0
04/01:00am 20.4 21.3 16.2 77 2.5 SE 6 7 3 4 1016.1 1016.0 0.0
04/12:30am 20.6 21.8 15.8 74 2.9 WSW 4 7 2 4 1016.3 1016.2 0.0
04/12:00am 21.3 22.7 16.5 74 2.9 NE 4 7 2 4 1016.7 1016.6 0.0
 
Date/Time
EDT
Temp
°C
App
Temp
°C
Dew
Point
°C
Rel
Hum
%
Delta-T
°C
Wind Press
QNH
hPa
Press
MSL
hPa
Rain since
9am
mm
Dir  Spd
km/h
Gust
km/h
Spd
kts
Gust
kts
03/11:30pm 21.3 22.2 16.5 74 2.9 NE 7 9 4 5 1016.7 1016.6 0.0
03/11:00pm 21.3 22.2 16.5 74 2.9 ENE 7 9 4 5 1016.6 1016.5 0.0
03/10:30pm 21.3 21.8 16.5 74 2.9 E 9 11 5 6 1016.5 1016.4 0.0
03/10:00pm 21.3 21.3 16.3 73 3.0 E 11 15 6 8 1016.3 1016.2 0.0
03/09:30pm 21.0 20.8 15.8 72 3.1 E 11 17 6 9 1015.9 1015.8 0.0
03/09:00pm 21.3 21.1 15.6 70 3.4 ENE 11 15 6 8 1015.4 1015.3 0.0
03/08:30pm 21.9 21.6 15.5 67 3.8 ENE 11 15 6 8 1015.1 1015.0 0.0
03/08:00pm 22.6 21.9 15.4 64 4.3 ENE 13 19 7 10 1014.8 1014.7 0.0
03/07:30pm 23.6 23.2 16.1 62 4.6 ENE 13 20 7 11 1014.2 1014.1 0.0
03/07:00pm 24.6 23.4 16.1 59 5.2 NE 17 22 9 12 1013.6 1013.5 0.0
03/06:30pm 25.8 24.6 16.1 55 5.9 ENE 17 22 9 12 1013.2 1013.1 0.0
03/06:00pm 26.5 24.9 16.1 52 6.4 E 19 28 10 15 1013.0 1012.9 0.0
03/05:30pm 27.3 25.8 16.3 51 6.8 ENE 19 26 10 14 1012.7 1012.6 0.0
03/05:00pm 27.6 26.3 15.9 49 7.2 E 17 24 9 13 1012.7 1012.6 0.0
03/04:30pm 28.4 27.1 16.7 49 7.3 ENE 19 26 10 14 1012.5 1012.4 0.0
03/04:00pm 28.4 26.9 16.7 49 7.3 ESE 20 30 11 16 1012.6 1012.5 0.0
03/03:30pm 28.8 26.5 16.7 48 7.6 ESE 24 32 13 17 1013.0 1012.9 0.0
03/03:00pm 29.6 28.4 17.4 47 7.7 ESE 20 39 11 21 1013.0 1012.9 0.0
03/02:30pm 30.1 28.7 17.9 48 7.8 E 22 30 12 16 1013.3 1013.2 0.0
03/02:00pm 29.2 28.0 16.0 44 8.2 E 17 26 9 14 1013.4 1013.3 0.0
03/01:30pm 29.4 29.5 16.6 46 8.0 E 11 20 6 11 1013.5 1013.4 0.0
03/01:00pm 28.8 29.2 16.4 47 7.7 ENE 9 19 5 10 1014.1 1014.0 0.0
03/12:30pm 28.0 28.0 16.3 49 7.2 NE 11 19 6 10 1014.4 1014.3 0.0
03/12:00pm 27.4 27.7 16.1 50 7.0 NNE 9 17 5 9 1014.9 1014.8 0.0
03/11:30am 26.9 27.3 16.2 52 6.6 NE 9 15 5 8 1015.0 1014.9 0.0
03/11:00am 24.6 25.5 16.1 59 5.2 N 6 9 3 5 1015.5 1015.4 0.0
03/10:30am 24.5 25.4 16.2 60 5.1 S 6 11 3 6 1015.8 1015.7 0.0
03/10:00am 24.6 26.3 17.1 63 4.6 SW 4 11 2 6 1016.0 1015.9 0.0
03/09:30am 23.1 23.5 16.4 66 4.1 SE 9 15 5 8 1016.1 1016.0 0.0
03/09:00am 22.9 23.2 17.1 70 3.6 S 11 15 6 8 1016.0 1015.9 0.0
03/08:30am 22.6 22.9 16.9 70 3.5 SSE 11 17 6 9 1015.9 1015.8 0.0
03/08:00am 22.6 22.5 16.9 70 3.5 SSE 13 19 7 10 1015.8 1015.7 0.0
03/07:30am 21.9 21.9 17.1 74 2.9 SSE 13 17 7 9 1015.6 1015.5 0.0
03/07:00am 21.6 22.0 17.2 76 2.7 SSE 11 15 6 8 1015.2 1015.1 0.0
03/06:30am 21.4 22.0 17.6 79 2.3 SSE 11 15 6 8 1014.9 1014.8 0.0
03/06:00am 21.2 21.8 17.6 80 2.2 S 11 13 6 7 1014.6 1014.5 0.0
03/05:30am 21.3 22.2 17.5 79 2.3 S 9 13 5 7 1014.0 1013.9 0.0
03/05:00am 21.4 22.8 17.4 78 2.5 SSE 6 9 3 5 1013.8 1013.7 0.0
03/04:30am 21.4 22.2 17.4 78 2.5 S 9 13 5 7 1013.4 1013.3 0.0
03/04:00am 21.4 22.3 17.6 79 2.3 S 9 13 5 7 1013.4 1013.3 0.0
03/03:30am 21.6 22.6 17.8 79 2.4 S 9 11 5 6 1013.5 1013.4 0.0
03/03:00am 21.7 22.4 17.9 79 2.4 S 11 17 6 9 1013.5 1013.4 0.0
03/02:30am 21.7 22.8 18.1 80 2.2 S 9 13 5 7 1013.3 1013.2 0.0
03/02:00am 21.9 22.7 18.1 79 2.4 SSE 11 17 6 9 1013.3 1013.2 0.0
03/01:30am 21.7 22.2 18.3 81 2.1 SSE 13 17 7 9 1013.4 1013.3 0.0
03/01:00am 21.6 21.9 18.0 80 2.2 SSE 13 17 7 9 1013.3 1013.2 0.0
03/12:30am 22.0 22.6 17.8 77 2.6 SSE 11 17 6 9 1013.5 1013.4 0.0
03/12:00am 22.5 22.7 17.6 74 3.0 S 13 20 7 11 1013.6 1013.5 0.0
 
Date/Time
EDT
Temp
°C
App
Temp
°C
Dew
Point
°C
Rel
Hum
%
Delta-T
°C
Wind Press
QNH
hPa
Press
MSL
hPa
Rain since
9am
mm
Dir  Spd
km/h
Gust
km/h
Spd
kts
Gust
kts
02/11:30pm 23.3 22.6 17.3 69 3.7 SSE 17 26 9 14 1013.3 1013.2 0.0
02/11:00pm 24.2 22.7 16.7 63 4.6 SE 20 26 11 14 1012.7 1012.6 0.0
02/10:30pm 25.9 23.8 11.3 40 8.3 SSE 13 22 7 12 1012.0 1011.9 0.0
02/10:00pm 25.4 24.1 11.2 41 8.0 ENE 9 11 5 6 1011.6 1011.5 0.0
02/09:30pm 25.1 24.4 11.3 42 7.8 N 6 7 3 4 1011.4 1011.3 0.0
02/09:00pm 27.5 25.9 10.2 34 9.7 NW 9 11 5 6 1011.0 1010.9 0.0
02/08:30pm 28.6 25.4 9.8 31 10.5 WNW 17 22 9 12 1010.8 1010.7 0.0
02/08:00pm 28.5 26.1 10.2 32 10.3 WNW 13 19 7 10 1010.7 1010.6 0.0
02/07:30pm 29.0 26.0 10.6 32 10.5 WNW 17 20 9 11 1010.1 1010.0 0.0
02/07:00pm 29.3 27.4 10.4 31 10.7 NNW 11 15 6 8 1009.6 1009.5 0.0
02/06:30pm 30.0 27.8 9.5 28 11.5 NW 11 15 6 8 1009.2 1009.1 0.0
02/06:00pm 31.0 26.3 9.3 26 12.2 W 24 32 13 17 1009.0 1008.9 0.0
02/05:30pm 31.9 27.3 8.2 23 13.1 WSW 22 32 12 17 1009.1 1009.0 0.0
02/05:00pm 32.6 25.9 8.1 22 13.6 WSW 33 44 18 24 1009.1 1009.0 0.0
02/04:30pm 33.5 26.4 8.2 21 14.1 W 35 48 19 26 1008.4 1008.3 0.0
02/04:00pm 34.6 28.3 7.6 19 15.1 W 30 43 16 23 1007.6 1007.5 0.0
02/03:30pm 34.8 29.4 7.8 19 15.1 SW 26 35 14 19 1007.1 1007.0 0.0
02/03:00pm 36.9 32.6 9.5 19 15.9 WNW 22 32 12 17 1006.8 1006.7 0.0
02/02:30pm 35.5 30.4 9.1 20 15.1 WNW 26 35 14 19 1006.9 1006.8 0.0
02/02:00pm 35.9 30.6 7.0 17 16.1 WSW 24 35 13 19 1006.7 1006.6 0.0
02/01:30pm 35.7 31.6 7.7 18 15.7 WSW 19 33 10 18 1006.8 1006.7 0.0
02/01:00pm 36.2 33.7 9.7 20 15.4 NNW 13 28 7 15 1006.9 1006.8 0.0
02/12:30pm 34.0 32.0 8.6 21 14.3 S 9 19 5 10 1007.2 1007.1 0.0
02/12:00pm 32.6 30.6 8.8 23 13.4 S 9 15 5 8 1007.4 1007.3 0.0
02/11:30am 32.9 31.4 8.4 22 13.7 S 6 13 3 7 1007.8 1007.7 0.0
02/11:00am 32.6 31.5 10.6 26 12.7 NW 7 13 4 7 1007.9 1007.8 0.0
02/10:30am 30.9 29.3 8.0 24 12.6 NW 6 11 3 6 1008.0 1007.9 0.0
02/10:00am 29.0 28.5 12.0 35 9.9 ENE 6 11 3 6 1008.3 1008.2 0.0
02/09:30am 26.6 26.4 13.7 45 7.6 NE 7 11 4 6 1008.5 1008.4 0.0

Latest Capital City Observations: Canberra | Sydney | Melbourne | Brisbane | Adelaide | Perth | Hobart | Darwin

Other Formats:

Comma delimited format used in spreadsheet applications
http://www.bom.gov.au/fwo/IDN60901/IDN60901.95753.axf

JavaScript Object Notation format (JSON) in row-major order
http://www.bom.gov.au/fwo/IDN60901/IDN60901.95753.json